Time;durP1;ratioP1;P1;durP2;ratioP2;P2;SDS_P1;SDS_P2;PMS_P1;PMS_P2;Temp;Humidity;BMP_temperature;BMP_pressure;BME280_temperature;BME280_humidity;BME280_pressure;Samples;Min_cycle;Max_cycle;Signal;HPM_P1;HPM_P2
2022/03/14 00:01:36;;;;;;;15.55;8.55;;;;;;;9.54;37.74;99828.53;12213763;19;20010;-80
2022/03/14 00:05:38;;;;;;;13.02;7.82;;;;;;;9.57;37.75;99846.47;12226181;19;20437;-82
2022/03/14 00:09:40;;;;;;;15.25;8.52;;;;;;;9.59;37.71;99850.66;12206873;19;20010;-81
2022/03/14 00:13:44;;;;;;;12.95;9.50;;;;;;;9.54;38.07;99852.44;12176465;19;20104;-82
2022/03/14 00:17:47;;;;;;;13.43;7.90;;;;;;;9.49;38.22;99850.44;12196019;19;20006;-80
2022/03/14 00:21:49;;;;;;;12.30;7.80;;;;;;;9.47;38.69;99855.34;12202957;19;20006;-82
2022/03/14 00:25:56;;;;;;;15.63;8.65;;;;;;;9.46;38.71;99855.56;12172258;19;20011;-81
2022/03/14 00:29:57;;;;;;;12.80;7.75;;;;;;;9.41;38.98;99870.06;12201556;19;20010;-81
2022/03/14 00:33:59;;;;;;;13.88;9.10;;;;;;;9.36;39.46;99876.25;12197760;19;20105;-82
2022/03/14 00:38:01;;;;;;;15.80;8.73;;;;;;;9.23;39.73;99889.44;12172028;19;20086;-82
2022/03/14 00:42:05;;;;;;;12.23;7.72;;;;;;;9.10;40.27;99896.84;12199878;19;20002;-82
2022/03/14 00:46:06;;;;;;;13.13;8.35;;;;;;;8.90;40.66;99926.56;12188322;19;20003;-82
2022/03/14 00:50:09;;;;;;;17.37;9.37;;;;;;;8.61;41.37;99947.50;12175332;19;20010;-82
2022/03/14 00:54:12;;;;;;;19.35;10.35;;;;;;;8.41;41.08;99958.78;12190053;19;20334;-82
2022/03/14 00:58:14;;;;;;;17.27;9.40;;;;;;;8.29;40.75;99966.94;12202258;19;20003;-82
2022/03/14 01:02:16;;;;;;;17.42;10.65;;;;;;;8.15;40.95;99970.91;12173875;19;20082;-82
2022/03/14 01:06:19;;;;;;;21.98;12.65;;;;;;;8.08;41.00;99970.16;12194498;19;20018;-81
2022/03/14 01:10:25;;;;;;;19.65;11.60;;;;;;;7.97;41.40;99974.50;12177748;19;20023;-81
2022/03/14 01:14:29;;;;;;;22.17;12.18;;;;;;;7.88;41.57;99981.34;12204963;19;20013;-82
2022/03/14 01:18:36;;;;;;;21.77;11.60;;;;;;;7.82;41.95;99968.56;12193164;19;20017;-82
2022/03/14 01:22:38;;;;;;;21.10;11.55;;;;;;;7.76;42.29;99989.50;12179483;19;20086;-82
2022/03/14 01:26:40;;;;;;;23.08;11.43;;;;;;;7.71;42.26;99992.94;12194225;19;20045;-83
2022/03/14 01:30:43;;;;;;;20.10;11.48;;;;;;;7.66;42.47;100001.00;12194715;19;20043;-82
2022/03/14 01:34:45;;;;;;;19.42;12.02;;;;;;;7.58;42.54;100023.22;12179118;19;21176;-81
2022/03/14 01:38:51;;;;;;;20.95;10.88;;;;;;;7.51;42.60;100050.72;12200437;19;20006;-82
2022/03/14 01:42:52;;;;;;;22.65;12.02;;;;;;;7.37;43.42;100060.09;12199343;19;20076;-82
2022/03/14 01:46:55;;;;;;;17.07;10.77;;;;;;;7.23;43.18;100073.09;12174912;19;20025;-81
2022/03/14 01:50:56;;;;;;;21.77;12.07;;;;;;;7.17;43.39;100086.81;12207375;19;20256;-83
2022/03/14 01:55:02;;;;;;;24.98;12.10;;;;;;;7.13;43.48;100107.50;12197147;19;20022;-81
2022/03/14 01:59:06;;;;;;;21.77;11.90;;;;;;;7.15;43.50;100099.91;12184097;19;20023;-83
2022/03/14 02:03:09;;;;;;;24.45;12.13;;;;;;;7.20;43.52;100119.28;12193682;19;20015;-81
2022/03/14 02:07:13;;;;;;;21.45;11.55;;;;;;;7.24;43.42;100131.47;12198999;19;20002;-84
2022/03/14 02:11:19;;;;;;;20.98;12.68;;;;;;;7.28;44.03;100158.22;12182114;19;20014;-82
2022/03/14 02:15:24;;;;;;;20.58;11.15;;;;;;;7.31;44.19;100166.00;12195003;19;20038;-84
2022/03/14 02:19:27;;;;;;;19.75;11.82;;;;;;;7.42;44.14;100172.69;12171063;19;20365;-83
2022/03/14 02:23:30;;;;;;;;;;;;;;;7.52;45.07;100180.41;12195938;19;20074;-83
2022/03/14 02:27:32;;;;;;;21.23;12.63;;;;;;;7.62;44.52;100191.78;12197754;19;19909;-83
2022/03/14 02:31:36;;;;;;;22.40;12.25;;;;;;;7.69;44.79;100197.19;12179841;19;20473;-82
2022/03/14 02:35:41;;;;;;;21.05;12.43;;;;;;;7.76;44.88;100196.09;12186141;19;20064;-82
2022/03/14 02:39:43;;;;;;;20.02;12.40;;;;;;;7.82;45.27;100205.31;12198309;19;20006;-83
2022/03/14 02:43:45;;;;;;;20.75;12.07;;;;;;;7.93;44.54;100209.25;12168382;19;20006;-82
2022/03/14 02:47:47;;;;;;;22.58;12.23;;;;;;;8.01;45.44;100214.47;12195686;19;20082;-82
2022/03/14 02:51:50;;;;;;;21.48;11.85;;;;;;;8.09;45.16;100227.94;12200716;19;20472;-81
2022/03/14 02:55:51;;;;;;;;;;;;;;;8.16;47.29;100241.59;12177786;19;20013;-82
2022/03/14 02:59:56;;;;;;;18.58;11.00;;;;;;;8.20;48.61;100248.31;12195694;19;20021;-81
2022/03/14 03:03:57;;;;;;;18.77;10.40;;;;;;;8.26;49.82;100263.06;12197493;19;20074;-82
2022/03/14 03:08:01;;;;;;;17.88;9.88;;;;;;;8.29;50.57;100270.84;12163730;19;20002;-80
2022/03/14 03:12:03;;;;;;;17.92;9.60;;;;;;;8.28;52.66;100272.75;12201802;19;20334;-80
2022/03/14 03:16:09;;;;;;;14.70;8.32;;;;;;;8.22;57.86;100279.97;12203275;19;20003;-80
2022/03/14 03:20:12;;;;;;;15.80;8.40;;;;;;;8.16;61.39;100285.53;12178781;19;20010;-79
2022/03/14 03:24:13;;;;;;;14.13;7.70;;;;;;;8.05;68.71;100298.03;12195201;19;20015;-78
2022/03/14 03:28:15;;;;;;;11.10;6.03;;;;;;;7.93;74.32;100295.16;12201644;19;20003;-78
2022/03/14 03:32:17;;;;;;;8.55;3.17;;;;;;;7.89;76.95;100298.59;12182621;19;20007;-79
2022/03/14 03:36:19;;;;;;;4.95;3.03;;;;;;;7.85;76.66;100303.69;12204334;19;20083;-78
2022/03/14 03:40:21;;;;;;;6.63;2.88;;;;;;;7.82;81.15;100308.75;12208464;19;20398;-79
2022/03/14 03:44:29;;;;;;;6.03;2.50;;;;;;;7.82;81.11;100316.97;12202185;19;20010;-78
2022/03/14 03:48:33;;;;;;;5.82;2.42;;;;;;;7.76;85.28;100332.41;12202031;19;20399;-78
2022/03/14 03:52:34;;;;;;;4.10;2.20;;;;;;;7.67;87.69;100337.28;12189638;19;20078;-78
2022/03/14 03:56:38;;;;;;;4.60;2.35;;;;;;;7.65;88.92;100339.44;12211762;19;20115;-80
2022/03/14 04:00:41;;;;;;;4.47;2.60;;;;;;;7.63;91.18;100347.03;12214589;19;20039;-79
2022/03/14 04:04:43;;;;;;;5.30;2.35;;;;;;;7.61;90.26;100349.13;12189496;19;20015;-79
2022/03/14 04:08:46;;;;;;;5.10;2.53;;;;;;;7.59;94.29;100356.75;12210834;19;20019;-78
2022/03/14 04:12:52;;;;;;;5.20;2.50;;;;;;;7.56;93.70;100367.34;12212190;19;20011;-78
2022/03/14 04:16:54;;;;;;;4.38;2.35;;;;;;;7.57;93.42;100371.75;12178484;19;20014;-79
2022/03/14 04:20:57;;;;;;;7.22;3.17;;;;;;;7.51;96.65;100378.94;12204897;19;20041;-78
2022/03/14 04:25:01;;;;;;;4.95;2.33;;;;;;;7.51;97.39;100381.69;12207655;19;20007;-79
2022/03/14 04:29:03;;;;;;;8.73;3.65;;;;;;;7.53;97.69;100374.09;12178743;19;20475;-78
2022/03/14 04:33:05;;;;;;;6.93;3.53;;;;;;;7.55;96.90;100371.94;12193829;19;20017;-78
2022/03/14 04:37:07;;;;;;;8.95;3.92;;;;;;;7.60;96.57;100372.16;12192169;19;20605;-78
2022/03/14 04:41:09;;;;;;;10.35;3.10;;;;;;;7.58;100.00;100381.66;12176939;19;20083;-79
2022/03/14 04:45:10;;;;;;;7.38;3.35;;;;;;;7.59;99.74;100381.44;12201385;19;20012;-78
2022/03/14 04:49:13;;;;;;;6.75;3.50;;;;;;;7.60;99.75;100380.38;12206905;19;20023;-78
2022/03/14 04:53:17;;;;;;;8.02;4.50;;;;;;;7.60;100.00;100393.25;12185154;19;20427;-78
2022/03/14 04:57:19;;;;;;;5.60;3.25;;;;;;;7.60;100.00;100406.97;12199370;19;20356;-78
2022/03/14 05:01:22;;;;;;;8.13;3.47;;;;;;;7.61;100.00;100406.75;12192170;19;20086;-78
2022/03/14 05:05:24;;;;;;;5.80;3.13;;;;;;;7.59;100.00;100411.63;12203814;19;20087;-78
2022/03/14 05:09:25;;;;;;;5.20;2.95;;;;;;;7.57;100.00;100416.47;12200972;19;20077;-78
2022/03/14 05:13:28;;;;;;;;;;;;;;;7.50;100.00;100419.22;12185053;19;20030;-78
2022/03/14 05:17:30;;;;;;;6.80;2.92;;;;;;;7.49;100.00;100433.16;12199432;19;20288;-78
2022/03/14 05:21:33;;;;;;;6.43;3.20;;;;;;;7.44;100.00;100430.22;12208258;19;20014;-79
2022/03/14 05:25:35;;;;;;;6.40;3.10;;;;;;;7.43;100.00;100444.97;12176199;19;20014;-79
2022/03/14 05:29:37;;;;;;;5.82;3.30;;;;;;;7.41;100.00;100450.69;12204317;19;20007;-77
2022/03/14 05:33:38;;;;;;;7.40;3.33;;;;;;;7.43;100.00;100455.94;12188278;19;20027;-78
2022/03/14 05:37:40;;;;;;;7.03;3.75;;;;;;;7.47;100.00;100463.53;12171249;19;20114;-78
2022/03/14 05:41:42;;;;;;;6.87;3.80;;;;;;;7.40;100.00;100470.91;12203416;19;20034;-79
2022/03/14 05:45:44;;;;;;;11.35;4.32;;;;;;;7.39;100.00;100479.38;12204358;19;20070;-78
2022/03/14 05:49:46;;;;;;;7.22;3.72;;;;;;;7.36;100.00;100485.28;12183910;19;20114;-80
2022/03/14 05:53:47;;;;;;;9.30;4.37;;;;;;;7.38;100.00;100485.91;12205564;19;20010;-78
2022/03/14 05:57:49;;;;;;;8.18;4.40;;;;;;;7.38;100.00;100500.47;12212847;19;20333;-78
2022/03/14 06:01:51;;;;;;;12.75;4.90;;;;;;;7.42;100.00;100498.97;12182161;19;20123;-79
2022/03/14 06:05:54;;;;;;;;;;;;;;;7.40;100.00;100505.72;12211773;19;20038;-80
2022/03/14 06:09:56;;;;;;;8.80;3.92;;;;;;;7.34;100.00;100520.28;12216372;19;19923;-79
2022/03/14 06:13:58;;;;;;;10.02;4.25;;;;;;;7.36;100.00;100520.91;12184642;19;20019;-79
2022/03/14 06:18:00;;;;;;;16.13;5.50;;;;;;;7.42;100.00;100533.78;12202576;19;20010;-79
2022/03/14 06:22:02;;;;;;;7.72;4.00;;;;;;;7.39;100.00;100543.28;12201135;19;20079;-78
2022/03/14 06:26:08;;;;;;;6.70;4.05;;;;;;;7.43;100.00;100552.75;12181454;19;20006;-79
2022/03/14 06:30:13;;;;;;;8.05;4.30;;;;;;;7.45;100.00;100552.56;12200801;19;20594;-80
2022/03/14 06:34:15;;;;;;;12.07;5.18;;;;;;;7.47;100.00;100566.91;12198805;19;20480;-80
2022/03/14 06:38:18;;;;;;;12.18;4.90;;;;;;;7.44;100.00;100578.31;12170949;19;20007;-79
2022/03/14 06:42:22;;;;;;;9.07;4.65;;;;;;;7.46;100.00;100582.50;12192289;19;20483;-78
2022/03/14 06:46:30;;;;;;;8.27;4.40;;;;;;;7.43;100.00;100590.31;12169698;19;20019;-78
2022/03/14 06:50:35;;;;;;;10.85;4.82;;;;;;;7.43;100.00;100609.50;12185820;19;20057;-77
2022/03/14 06:54:38;;;;;;;9.38;4.72;;;;;;;7.42;100.00;100616.03;12214586;19;20002;-78
2022/03/14 06:58:40;;;;;;;8.35;4.55;;;;;;;7.47;100.00;100621.75;12180219;19;20023;-77
2022/03/14 07:02:46;;;;;;;10.35;4.82;;;;;;;7.50;100.00;100629.56;12214734;19;20476;-77
2022/03/14 07:06:49;;;;;;;9.65;4.90;;;;;;;7.48;100.00;100634.41;12206813;19;20414;-77
2022/03/14 07:10:50;;;;;;;13.05;4.07;;;;;;;7.56;100.00;100631.47;12190858;19;20402;-78
2022/03/14 07:14:53;;;;;;;10.87;4.40;;;;;;;7.61;100.00;100636.31;12208592;19;20010;-78
2022/03/14 07:18:55;;;;;;;8.98;3.88;;;;;;;7.61;100.00;100639.88;12208428;19;20042;-79
2022/03/14 07:23:00;;;;;;;14.17;4.27;;;;;;;7.64;100.00;100636.72;12187631;19;20081;-78
2022/03/14 07:27:02;;;;;;;8.82;4.38;;;;;;;7.68;100.00;100645.41;12209742;19;20023;-78
2022/03/14 07:31:05;;;;;;;14.63;5.38;;;;;;;7.69;100.00;100652.56;12205251;19;20014;-78
2022/03/14 07:35:07;;;;;;;11.63;4.88;;;;;;;7.70;100.00;100654.25;12194137;19;20010;-79
2022/03/14 07:39:13;;;;;;;13.27;5.53;;;;;;;7.77;100.00;100668.81;12214226;19;20103;-79
2022/03/14 07:43:16;;;;;;;13.80;6.97;;;;;;;7.81;100.00;100672.81;12217002;19;20028;-78
2022/03/14 07:47:26;;;;;;;15.98;6.38;;;;;;;7.87;100.00;100682.94;12190358;19;20464;-78
2022/03/14 07:51:28;;;;;;;15.82;5.82;;;;;;;7.95;100.00;100690.16;12197242;19;23714;-79
2022/03/14 07:55:30;;;;;;;16.55;6.65;;;;;;;8.05;100.00;100695.19;12186195;19;20027;-79
2022/03/14 07:59:33;;;;;;;13.45;5.97;;;;;;;8.21;100.00;100709.34;12207420;19;20022;-79
2022/03/14 08:03:34;;;;;;;12.07;5.78;;;;;;;8.27;99.50;100709.53;12203982;19;20090;-78
2022/03/14 08:07:38;;;;;;;15.73;6.28;;;;;;;8.40;97.84;100718.63;12182380;19;20018;-79
2022/03/14 08:11:42;;;;;;;14.25;6.60;;;;;;;8.57;97.27;100726.44;12200797;19;20010;-78
2022/03/14 08:15:44;;;;;;;12.07;6.43;;;;;;;8.65;96.18;100731.69;12194766;19;20017;-78
2022/03/14 08:19:46;;;;;;;12.55;6.22;;;;;;;8.93;94.95;100731.41;12180216;19;20006;-78
2022/03/14 08:23:47;;;;;;;15.70;7.15;;;;;;;9.04;93.57;100744.50;12191654;19;20034;-78
2022/03/14 08:27:49;;;;;;;13.95;6.13;;;;;;;9.07;92.06;100745.94;12201290;19;20035;-78
2022/03/14 08:31:51;;;;;;;15.27;7.47;;;;;;;9.17;91.37;100748.25;12180316;19;20074;-78
2022/03/14 08:35:54;;;;;;;19.13;6.28;;;;;;;9.21;90.67;100744.00;12190235;19;20029;-78
2022/03/14 08:39:58;;;;;;;12.70;5.72;;;;;;;9.50;89.41;100757.19;12196608;19;20796;-78
2022/03/14 08:43:59;;;;;;;10.45;5.03;;;;;;;9.72;87.48;100767.84;12185977;19;20011;-79
2022/03/14 08:48:02;;;;;;;14.50;5.93;;;;;;;9.99;85.67;100769.38;12207118;19;20389;-77
2022/03/14 08:52:04;;;;;;;13.43;5.93;;;;;;;10.15;84.88;100783.69;12199508;19;20014;-80
2022/03/14 08:56:06;;;;;;;13.87;5.23;;;;;;;10.27;82.81;100787.44;12167158;19;20082;-79
2022/03/14 09:00:11;;;;;;;18.63;6.83;;;;;;;10.39;83.37;100790.31;12194104;19;20006;-79
2022/03/14 09:04:14;;;;;;;12.05;5.40;;;;;;;10.53;82.38;100796.53;12204822;19;20003;-81
2022/03/14 09:08:19;;;;;;;13.23;5.22;;;;;;;10.19;81.11;100805.03;12176050;19;20587;-79
2022/03/14 09:12:21;;;;;;;10.52;5.10;;;;;;;10.21;81.33;100811.16;12192054;19;20082;-79
2022/03/14 09:16:29;;;;;;;13.13;4.50;;;;;;;10.25;81.11;100812.41;12166339;19;20002;-78
2022/03/14 09:20:38;;;;;;;16.83;4.70;;;;;;;10.38;80.84;100811.50;12214734;19;20030;-80
2022/03/14 09:24:41;;;;;;;12.10;4.78;;;;;;;10.21;80.51;100833.19;12190370;19;20014;-78
2022/03/14 09:28:44;;;;;;;13.57;5.10;;;;;;;9.88;80.59;100833.41;12168722;19;20034;-79
2022/03/14 09:33:06;;;;;;;15.65;5.43;;;;;;;9.96;81.00;100832.28;12191855;19;19998;-80
2022/03/14 09:37:15;;;;;;;17.45;5.07;;;;;;;10.33;78.99;100832.53;12182178;19;20410;-79
2022/03/14 09:41:19;;;;;;;12.60;4.75;;;;;;;10.58;78.25;100835.28;12175291;19;20023;-79
2022/03/14 09:45:22;;;;;;;11.32;4.75;;;;;;;11.02;78.29;100830.63;12190680;19;20046;-78
2022/03/14 09:49:26;;;;;;;11.82;5.15;;;;;;;11.31;74.83;100853.88;12170262;19;20010;-79
2022/03/14 09:53:29;;;;;;;8.07;4.05;;;;;;;11.35;74.33;100850.41;12189903;19;20013;-79
2022/03/14 09:57:45;;;;;;;15.23;5.00;;;;;;;11.15;73.33;100849.78;12189930;19;20082;-80
2022/03/14 10:01:48;;;;;;;11.70;4.68;;;;;;;11.13;74.15;100847.28;12166809;19;20014;-79
2022/03/14 10:05:51;;;;;;;7.45;3.80;;;;;;;10.95;74.29;100855.53;12185324;19;20024;-79
2022/03/14 10:09:54;;;;;;;9.40;4.00;;;;;;;11.11;72.84;100856.84;12186788;19;20002;-78
2022/03/14 10:13:59;;;;;;;11.55;4.07;;;;;;;11.50;71.60;100869.34;12171888;19;20373;-80
2022/03/14 10:18:15;;;;;;;9.30;4.40;;;;;;;11.81;70.41;100864.75;12187107;19;20014;-79
2022/03/14 10:22:20;;;;;;;10.07;4.80;;;;;;;11.89;68.55;100871.88;12199875;19;20012;-77
2022/03/14 10:26:25;;;;;;;13.70;5.03;;;;;;;11.82;68.54;100864.50;12184621;19;20006;-81
2022/03/14 10:30:34;;;;;;;9.20;5.00;;;;;;;11.98;67.74;100860.28;12208102;19;20070;-81
2022/03/14 10:34:50;;;;;;;8.93;4.22;;;;;;;12.47;65.86;100869.34;12180610;19;20358;-81
2022/03/14 10:38:52;;;;;;;18.05;4.90;;;;;;;12.52;65.37;100871.38;12204161;19;20874;-81
2022/03/14 10:42:53;;;;;;;10.85;5.10;;;;;;;12.65;65.23;100865.66;12211299;19;20034;-80
2022/03/14 10:47:03;;;;;;;15.30;5.60;;;;;;;12.67;62.86;100874.56;12182046;19;20060;-81
2022/03/14 10:51:07;;;;;;;12.40;4.80;;;;;;;12.81;63.30;100866.88;12207974;19;20716;-81
2022/03/14 10:55:12;;;;;;;10.05;4.43;;;;;;;13.09;61.80;100876.41;12210651;19;20066;-80
2022/03/14 10:59:31;;;;;;;;;;;;;;;13.17;62.03;100884.34;12191758;19;20015;-80
2022/03/14 11:03:35;;;;;;;10.63;4.50;;;;;;;13.09;61.68;100893.84;12205263;19;19907;-78
2022/03/14 11:07:43;;;;;;;7.53;4.05;;;;;;;12.89;61.74;100879.53;12187999;19;20006;-80
2022/03/14 11:11:44;;;;;;;12.15;4.60;;;;;;;13.04;61.57;100888.19;12211527;19;20038;-80
2022/03/14 11:15:52;;;;;;;8.68;4.43;;;;;;;13.25;61.20;100897.84;12207190;19;20034;-80
2022/03/14 11:19:54;;;;;;;7.75;4.18;;;;;;;13.31;61.62;100896.03;12193737;19;20014;-81
2022/03/14 11:23:57;;;;;;;9.23;3.95;;;;;;;13.37;60.42;100897.84;12203796;19;20014;-80
2022/03/14 11:28:01;;;;;;;8.27;3.40;;;;;;;13.62;59.53;100895.66;12204641;19;20017;-80
2022/03/14 11:32:04;;;;;;;7.72;3.95;;;;;;;13.73;58.51;100906.94;12186152;19;20023;-80
2022/03/14 11:36:26;;;;;;;5.63;3.45;;;;;;;13.45;58.65;100912.16;12201693;19;20667;-80
2022/03/14 11:40:29;;;;;;;8.13;2.97;;;;;;;13.41;57.12;100904.56;12192642;19;20020;-80
2022/03/14 11:44:31;;;;;;;;;;;;;;;13.32;56.20;100906.03;12206407;19;20074;-80
2022/03/14 11:48:34;;;;;;;9.02;3.35;;;;;;;13.58;56.44;100899.16;12215232;19;19924;-80
2022/03/14 11:52:41;;;;;;;6.20;3.42;;;;;;;13.57;55.86;100895.53;12174356;19;20464;-81
2022/03/14 11:56:56;;;;;;;5.70;2.83;;;;;;;13.73;56.23;100899.47;12189918;19;20017;-81
2022/03/14 12:00:58;;;;;;;5.05;2.92;;;;;;;14.00;55.74;100905.28;12208863;19;20112;-81
2022/03/14 12:05:01;;;;;;;8.25;2.70;;;;;;;14.08;53.94;100904.91;12182443;19;20006;-80
2022/03/14 12:09:03;;;;;;;6.30;3.17;;;;;;;14.01;54.66;100903.38;12204445;19;20009;-80
2022/03/14 12:13:05;;;;;;;6.45;3.15;;;;;;;13.79;54.84;100894.88;12202838;19;20483;-79
2022/03/14 12:17:14;;;;;;;7.32;3.20;;;;;;;13.52;55.67;100900.97;12175910;19;20014;-80
2022/03/14 12:21:44;;;;;;;9.80;3.80;;;;;;;13.81;55.49;100887.19;12206763;19;20003;-80
2022/03/14 12:25:49;;;;;;;5.95;3.47;;;;;;;13.85;54.56;100894.75;12181019;19;20137;-80
2022/03/14 12:29:52;;;;;;;5.10;3.22;;;;;;;14.23;54.92;100889.69;12207760;19;20072;-80
2022/03/14 12:34:11;;;;;;;5.35;3.13;;;;;;;14.64;54.04;100880.22;12199359;19;20007;-81
2022/03/14 12:38:25;;;;;;;6.97;3.40;;;;;;;14.58;52.73;100884.81;12183823;19;20010;-79
2022/03/14 12:42:26;;;;;;;7.47;3.80;;;;;;;14.29;52.97;100881.22;12208517;19;20666;-80
2022/03/14 12:46:29;;;;;;;6.63;3.23;;;;;;;14.86;52.30;100879.47;12189583;19;20011;-81
2022/03/14 12:50:43;;;;;;;5.63;3.25;;;;;;;15.45;51.26;100882.59;12199340;19;20030;-80
2022/03/14 12:54:47;;;;;;;6.22;3.45;;;;;;;15.92;50.25;100884.91;12213693;19;20022;-80
2022/03/14 12:58:58;;;;;;;8.55;3.78;;;;;;;16.70;48.28;100884.63;12181485;19;20777;-80
2022/03/14 13:03:01;;;;;;;6.60;4.03;;;;;;;17.62;48.15;100885.31;12202197;19;20007;-80
2022/03/14 13:07:03;;;;;;;5.63;2.47;;;;;;;17.79;44.26;100887.91;12208513;19;20111;-80
2022/03/14 13:11:20;;;;;;;6.72;2.70;;;;;;;18.05;43.61;100875.75;12186207;19;20006;-81
2022/03/14 13:15:22;;;;;;;5.77;3.17;;;;;;;17.82;43.30;100876.22;12207006;19;20042;-81
2022/03/14 13:19:25;;;;;;;6.73;3.13;;;;;;;17.23;44.62;100896.78;12180071;19;20066;-80
2022/03/14 13:23:31;;;;;;;5.43;3.00;;;;;;;16.60;45.05;100891.78;12209680;19;20003;-80
2022/03/14 13:27:34;;;;;;;3.75;2.50;;;;;;;16.06;46.04;100910.34;12197475;19;20031;-81
2022/03/14 13:31:37;;;;;;;4.03;2.03;;;;;;;15.74;45.67;100907.47;12177796;19;20003;-79
2022/03/14 13:35:44;;;;;;;4.85;2.72;;;;;;;15.12;47.00;100900.16;12202689;19;19998;-80
2022/03/14 13:39:47;;;;;;;6.72;2.83;;;;;;;14.73;48.22;100903.66;12205678;19;20516;-80
2022/03/14 13:43:52;;;;;;;4.88;2.28;;;;;;;14.58;48.56;100920.88;12180387;19;20070;-79
2022/03/14 13:47:57;;;;;;;4.80;2.70;;;;;;;14.26;49.13;100925.22;12205008;19;20010;-82
2022/03/14 13:52:02;;;;;;;7.65;2.70;;;;;;;14.02;49.84;100913.38;12205106;19;20552;-79
2022/03/14 13:56:03;;;;;;;3.72;2.40;;;;;;;13.81;50.57;100912.94;12180070;19;20003;-80
2022/03/14 14:00:13;;;;;;;7.32;2.47;;;;;;;14.14;50.36;100911.41;12202248;19;20074;-82
2022/03/14 14:04:18;;;;;;;5.03;2.50;;;;;;;14.75;49.44;100907.03;12199718;19;20011;-80
2022/03/14 14:08:31;;;;;;;5.57;2.53;;;;;;;14.54;49.34;100916.91;12181789;19;20010;-80
2022/03/14 14:12:33;;;;;;;6.43;2.53;;;;;;;14.40;49.68;100911.91;12201865;19;20011;-80
2022/03/14 14:16:37;;;;;;;4.80;2.63;;;;;;;14.35;49.28;100913.47;12172887;19;20126;-79
2022/03/14 14:20:39;;;;;;;4.22;2.17;;;;;;;14.23;49.61;100909.09;12202699;19;20007;-79
2022/03/14 14:24:47;;;;;;;6.00;2.10;;;;;;;14.31;48.69;100917.84;12206119;19;20021;-79
2022/03/14 14:28:49;;;;;;;3.58;1.58;;;;;;;14.16;48.88;100913.91;12168539;19;20028;-79
2022/03/14 14:32:51;;;;;;;5.50;2.13;;;;;;;13.94;49.16;100917.38;12201989;19;20461;-80
2022/03/14 14:36:52;;;;;;;5.47;2.33;;;;;;;13.57;49.83;100906.63;12201007;19;20011;-79
2022/03/14 14:40:56;;;;;;;4.00;1.90;;;;;;;13.41;50.64;100896.25;12185349;19;20010;-79
2022/03/14 14:44:59;;;;;;;3.80;2.20;;;;;;;13.52;51.19;100889.88;12200866;19;20023;-79
2022/03/14 14:49:01;;;;;;;4.72;2.20;;;;;;;14.39;49.97;100894.41;12202759;19;20588;-79
2022/03/14 14:53:02;;;;;;;3.50;1.92;;;;;;;14.86;48.92;100890.56;12177753;19;20489;-79
2022/03/14 14:57:14;;;;;;;6.18;2.03;;;;;;;14.44;48.53;100891.75;12210255;19;20015;-80
2022/03/14 15:01:18;;;;;;;8.53;2.40;;;;;;;14.13;49.57;100887.56;12199864;19;20007;-80
2022/03/14 15:05:22;;;;;;;4.63;1.65;;;;;;;14.63;48.45;100894.31;12195389;19;20272;-80
2022/03/14 15:09:24;;;;;;;4.53;1.50;;;;;;;14.53;47.83;100901.38;12245255;19;20468;-80
2022/03/14 15:13:26;;;;;;;4.47;1.50;;;;;;;14.44;47.41;100893.69;12217062;19;20014;-81
2022/03/14 15:17:28;;;;;;;6.60;1.77;;;;;;;14.29;48.09;100908.94;12210398;19;20093;-78
2022/03/14 15:21:30;;;;;;;8.75;1.58;;;;;;;14.27;47.90;100907.50;12216556;19;20026;-80
2022/03/14 15:25:32;;;;;;;5.43;1.70;;;;;;;14.04;48.74;100912.06;12191048;19;20023;-80
2022/03/14 15:29:34;;;;;;;4.07;1.58;;;;;;;13.85;48.97;100910.53;12210006;19;20077;-80
2022/03/14 15:33:36;;;;;;;3.95;1.40;;;;;;;13.94;48.99;100909.06;12214210;19;20539;-80
2022/03/14 15:37:38;;;;;;;3.20;1.83;;;;;;;13.97;48.88;100907.72;12186249;19;20023;-80
2022/03/14 15:41:41;;;;;;;3.33;1.00;;;;;;;14.11;47.50;100917.44;12216838;19;20056;-80
2022/03/14 15:45:42;;;;;;;4.20;0.90;;;;;;;13.87;47.01;100927.75;12212466;19;20011;-80
2022/03/14 15:49:45;;;;;;;2.50;1.13;;;;;;;13.54;47.59;100937.56;12196383;19;20074;-81
2022/03/14 15:53:48;;;;;;;2.08;0.90;;;;;;;13.33;47.79;100938.19;12215737;19;20070;-81
2022/03/14 15:57:50;;;;;;;4.45;1.15;;;;;;;13.15;48.60;100952.94;12213930;19;20002;-80
2022/03/14 16:01:52;;;;;;;4.63;1.10;;;;;;;13.26;48.80;100948.50;12196386;19;20104;-80
2022/03/14 16:06:37;;;;;;;2.35;0.80;;;;;;;13.31;48.87;100943.09;12205563;19;20007;-79
2022/03/14 16:27:34;;;;;;;3.05;0.70;;;;;;;13.70;48.15;100960.06;12225674;19;20015;-81
2022/03/14 16:43:48;;;;;;;1.85;0.82;;;;;;;12.67;50.30;100968.59;12243576;19;20010;-83
2022/03/14 16:58:51;;;;;;;2.00;0.80;;;;;;;12.13;51.74;100977.81;12106343;19;20028;-79
2022/03/14 17:02:53;;;;;;;2.85;1.10;;;;;;;12.00;52.15;100974.16;12209028;19;20090;-80
2022/03/14 17:06:55;;;;;;;4.65;1.33;;;;;;;12.04;52.58;100971.78;12206203;19;20022;-79
2022/03/14 17:10:57;;;;;;;3.42;1.17;;;;;;;12.00;52.81;100973.31;12189471;19;20063;-80
2022/03/14 17:14:58;;;;;;;3.58;1.10;;;;;;;11.74;53.47;100980.78;12211597;19;20015;-79
2022/03/14 17:19:00;;;;;;;7.22;2.33;;;;;;;11.44;54.29;100971.56;12210311;19;20018;-80
2022/03/14 17:23:05;;;;;;;9.13;3.30;;;;;;;11.14;54.99;100972.25;12192576;19;20376;-79
2022/03/14 17:27:08;;;;;;;5.97;2.78;;;;;;;10.80;55.96;100968.91;12210215;19;20444;-79
2022/03/14 17:31:11;;;;;;;6.43;1.92;;;;;;;10.47;57.02;100969.97;12211737;19;20019;-79
2022/03/14 17:35:13;;;;;;;;;;;;;;;10.17;58.11;100974.31;12178637;19;20010;-79
2022/03/14 17:39:16;;;;;;;5.68;1.58;;;;;;;9.88;58.33;100975.75;12209042;19;19930;-80
2022/03/14 17:43:17;;;;;;;3.20;1.17;;;;;;;9.59;59.50;100983.41;12202389;19;20019;-80
2022/03/14 17:47:20;;;;;;;4.95;1.30;;;;;;;9.35;60.38;100999.53;12186924;19;20027;-80
2022/03/14 17:51:25;;;;;;;2.75;1.10;;;;;;;9.14;61.26;100997.00;12213716;19;20029;-80
2022/03/14 17:55:27;;;;;;;3.67;1.52;;;;;;;8.92;61.98;101001.84;12186690;19;20576;-81
2022/03/14 17:59:29;;;;;;;4.15;1.08;;;;;;;8.74;62.92;101010.69;12212720;19;20027;-80
2022/03/14 18:03:31;;;;;;;3.80;1.20;;;;;;;8.57;63.07;101018.50;12213740;19;20010;-80
2022/03/14 18:07:32;;;;;;;5.05;1.38;;;;;;;8.42;63.57;101032.41;12184347;19;20015;-81
2022/03/14 18:11:35;;;;;;;4.75;1.50;;;;;;;8.29;64.18;101020.47;12208342;19;20014;-80
2022/03/14 18:15:37;;;;;;;;;;;;;;;8.17;64.94;101021.06;12207929;19;20024;-81
2022/03/14 18:19:39;;;;;;;4.70;1.08;;;;;;;8.06;64.66;101016.19;12185610;19;19927;-80
2022/03/14 18:23:46;;;;;;;4.20;1.50;;;;;;;7.96;65.05;101010.19;12209684;19;20007;-80
2022/03/14 18:27:53;;;;;;;4.15;1.08;;;;;;;7.87;66.02;101012.25;12209029;19;20597;-81
2022/03/14 18:31:56;;;;;;;3.50;0.88;;;;;;;7.81;66.24;101015.81;12186311;19;20014;-80
2022/03/14 18:35:57;;;;;;;3.15;1.08;;;;;;;7.73;66.82;101016.84;12202172;19;20081;-80
2022/03/14 18:39:59;;;;;;;2.95;1.17;;;;;;;7.63;67.19;101010.84;12216395;19;20002;-80
2022/03/14 18:44:23;;;;;;;4.20;1.10;;;;;;;7.55;67.69;101030.19;12193352;19;20496;-80
2022/03/14 18:48:39;;;;;;;2.40;0.90;;;;;;;7.48;68.25;101032.06;12209513;19;20061;-79
2022/03/14 18:52:41;;;;;;;3.72;1.08;;;;;;;7.43;68.67;101031.81;12190602;19;20016;-80
2022/03/14 18:56:43;;;;;;;3.85;1.60;;;;;;;7.34;68.61;101039.31;12217127;19;20050;-80
2022/03/14 19:00:46;;;;;;;5.70;1.15;;;;;;;7.28;69.21;101031.91;12211062;19;20027;-80
2022/03/14 19:04:49;;;;;;;6.20;1.10;;;;;;;7.23;69.36;101040.75;12194010;19;20007;-81
2022/03/14 19:08:52;;;;;;;3.58;1.13;;;;;;;7.17;69.52;101036.03;12203027;19;20025;-82
2022/03/14 19:12:54;;;;;;;5.82;1.15;;;;;;;7.14;69.75;101039.19;12206745;19;20010;-81
2022/03/14 19:16:57;;;;;;;3.08;1.13;;;;;;;7.10;69.98;101037.88;12188406;19;20461;-81
2022/03/14 19:21:00;;;;;;;10.07;3.65;;;;;;;7.08;70.28;101035.34;12220518;19;20014;-81
2022/03/14 19:25:08;;;;;;;10.68;4.82;;;;;;;7.04;70.48;101036.75;12212067;19;20017;-80